Time;durP1;ratioP1;P1;durP2;ratioP2;P2;SDS_P1;SDS_P2;PMS_P1;PMS_P2;Temp;Humidity;BMP_temperature;BMP_pressure;BME280_temperature;BME280_humidity;BME280_pressure;Samples;Min_cycle;Max_cycle;Signal;HPM_P1;HPM_P2
2022/01/31 00:00:14;;;;;;;27.70;4.72;;;;;;;4.92;100.00;98262.53;5033854;28;20044;-56
2022/01/31 00:02:45;;;;;;;16.75;4.13;;;;;;;5.35;100.00;98252.41;5037628;28;20029;-56
2022/01/31 00:05:10;;;;;;;21.95;4.57;;;;;;;5.35;100.00;98236.88;5034917;28;20033;-56
2022/01/31 00:07:36;;;;;;;20.92;4.43;;;;;;;4.76;100.00;98243.78;5037466;28;20262;-54
2022/01/31 00:10:07;;;;;;;18.77;4.00;;;;;;;5.75;100.00;98258.63;5038908;28;20538;-55
2022/01/31 00:12:42;;;;;;;18.48;4.10;;;;;;;5.34;100.00;98260.19;5038956;28;20267;-54
2022/01/31 00:15:08;;;;;;;14.50;3.67;;;;;;;5.80;100.00;98246.47;5039768;28;20120;-54
2022/01/31 00:17:33;;;;;;;18.92;4.40;;;;;;;5.06;100.00;98239.94;5039901;28;20025;-55
2022/01/31 00:19:58;;;;;;;17.73;4.00;;;;;;;5.50;100.00;98238.38;5037523;28;20029;-56
2022/01/31 00:22:24;;;;;;;19.88;4.40;;;;;;;4.73;100.00;98231.78;5036348;28;20719;-57
2022/01/31 00:24:49;;;;;;;17.75;3.97;;;;;;;5.47;100.00;98209.94;5039854;28;20029;-54
2022/01/31 00:27:14;;;;;;;17.88;3.83;;;;;;;5.21;100.00;98207.81;5038724;28;20063;-55
2022/01/31 00:29:40;;;;;;;21.65;4.07;;;;;;;5.05;100.00;98211.50;5035415;28;20031;-56
2022/01/31 00:32:06;;;;;;;24.15;4.78;;;;;;;5.72;100.00;98194.84;5029387;28;20045;-55
2022/01/31 00:34:32;;;;;;;20.83;4.53;;;;;;;5.13;100.00;98200.19;5036914;28;20035;-55
2022/01/31 00:36:57;;;;;;;19.95;4.10;;;;;;;5.01;100.00;98206.38;5036625;28;20041;-55
2022/01/31 00:39:23;;;;;;;26.50;4.93;;;;;;;5.49;100.00;98191.81;5032614;28;20029;-56
2022/01/31 00:41:48;;;;;;;19.35;4.60;;;;;;;5.52;100.00;98182.28;5032999;28;20140;-54
2022/01/31 00:46:56;;;;;;;20.55;4.60;;;;;;;5.23;100.00;98177.59;5037726;28;20037;-55
2022/01/31 00:51:55;;;;;;;18.38;4.10;;;;;;;5.08;100.00;98172.69;5038475;28;20037;-55
2022/01/31 00:54:21;;;;;;;20.92;4.70;;;;;;;5.15;100.00;98179.47;5039195;28;20025;-56
2022/01/31 00:56:48;;;;;;;24.98;4.88;;;;;;;4.98;100.00;98174.53;5038469;28;20400;-56
2022/01/31 00:59:13;;;;;;;23.23;4.53;;;;;;;4.88;100.00;98183.34;5038579;28;20036;-56
2022/01/31 01:01:39;;;;;;;22.95;4.40;;;;;;;4.89;100.00;98174.69;5036278;28;20033;-54
2022/01/31 01:04:04;;;;;;;20.30;4.65;;;;;;;5.07;100.00;98173.56;5034725;28;20028;-54
2022/01/31 01:06:29;;;;;;;27.85;4.88;;;;;;;5.16;100.00;98163.91;5034397;28;20035;-56
2022/01/31 01:08:55;;;;;;;22.50;4.47;;;;;;;4.99;100.00;98160.75;5038005;28;20024;-55
2022/01/31 01:11:20;;;;;;;26.50;4.63;;;;;;;5.21;100.00;98156.94;5037762;28;20446;-56
2022/01/31 01:13:45;;;;;;;18.00;3.92;;;;;;;4.95;100.00;98117.75;5038524;28;20990;-56
2022/01/31 01:16:10;;;;;;;17.77;3.88;;;;;;;5.02;100.00;98101.25;5038006;28;20095;-56
2022/01/31 01:18:36;;;;;;;19.73;4.45;;;;;;;4.74;100.00;98098.25;5038381;28;20025;-56
2022/01/31 01:21:01;;;;;;;19.48;4.38;;;;;;;4.92;100.00;98097.09;5037700;28;20438;-54
2022/01/31 01:23:27;;;;;;;23.35;4.78;;;;;;;4.76;100.00;98097.38;5038395;28;20025;-54
2022/01/31 01:25:52;;;;;;;23.40;4.68;;;;;;;5.21;100.00;98094.03;5037962;28;20037;-56
2022/01/31 01:28:20;;;;;;;24.52;4.90;;;;;;;5.13;100.00;98085.56;5038901;28;20625;-55
2022/01/31 01:30:46;;;;;;;22.15;5.15;;;;;;;5.36;100.00;98088.56;5038135;28;20033;-55
2022/01/31 01:33:18;;;;;;;23.65;4.80;;;;;;;5.64;100.00;98082.00;5037926;28;20021;-55
2022/01/31 01:35:43;;;;;;;;;;;;;;;5.15;100.00;98068.28;5038325;28;20734;-56
2022/01/31 01:38:10;;;;;;;21.75;4.45;;;;;;;4.74;100.00;98057.78;5037974;28;20576;-54
2022/01/31 01:40:38;;;;;;;19.20;4.32;;;;;;;4.85;100.00;98054.16;5037259;28;20607;-56
2022/01/31 01:43:03;;;;;;;18.33;4.50;;;;;;;5.19;100.00;98039.75;5037373;28;20736;-55
2022/01/31 01:45:29;;;;;;;21.85;4.32;;;;;;;4.82;100.00;98030.06;5037752;28;20033;-54
2022/01/31 01:47:54;;;;;;;13.57;3.95;;;;;;;5.71;100.00;98017.13;5038050;28;20044;-54
2022/01/31 01:50:19;;;;;;;18.38;4.90;;;;;;;4.99;100.00;98003.91;5037404;28;20137;-54
2022/01/31 01:52:45;;;;;;;19.55;4.35;;;;;;;5.65;100.00;97996.59;5037310;28;20891;-56
2022/01/31 01:55:10;;;;;;;19.33;4.18;;;;;;;5.00;100.00;97978.94;5037266;28;20067;-55
2022/01/31 01:57:36;;;;;;;23.67;4.70;;;;;;;4.83;100.00;97958.53;5037716;28;20067;-55
2022/01/31 02:00:02;;;;;;;24.27;4.82;;;;;;;4.92;100.00;97962.69;5036161;28;20028;-55
2022/01/31 02:02:27;;;;;;;20.65;4.75;;;;;;;4.80;100.00;97948.28;5034668;28;20128;-55
2022/01/31 02:04:52;;;;;;;17.38;4.25;;;;;;;4.82;100.00;97925.84;5036126;28;20032;-55
2022/01/31 02:07:19;;;;;;;25.65;5.18;;;;;;;4.43;100.00;97898.16;5036488;28;20665;-54
2022/01/31 02:09:52;;;;;;;20.02;4.82;;;;;;;4.33;100.00;97888.84;5037763;28;20098;-56
2022/01/31 02:12:18;;;;;;;19.63;4.82;;;;;;;4.51;100.00;97889.41;5035053;28;20120;-55
2022/01/31 02:14:43;;;;;;;23.80;4.90;;;;;;;4.23;100.00;97879.56;5035580;28;20035;-56
2022/01/31 02:17:08;;;;;;;20.83;4.80;;;;;;;4.50;100.00;97869.59;5034775;28;20736;-54
2022/01/31 02:19:34;;;;;;;24.33;5.15;;;;;;;4.58;100.00;97860.84;5037624;28;20402;-54
2022/01/31 02:21:59;;;;;;;21.75;4.85;;;;;;;4.90;100.00;97855.91;5036808;28;20037;-54
2022/01/31 02:24:25;;;;;;;20.50;4.65;;;;;;;4.52;100.00;97839.44;5033489;28;20048;-57
2022/01/31 02:26:51;;;;;;;21.25;5.28;;;;;;;5.08;100.00;97824.50;5036056;28;20040;-55
2022/01/31 02:29:16;;;;;;;20.15;4.82;;;;;;;5.01;100.00;97833.28;5037098;28;20136;-55
2022/01/31 02:31:49;;;;;;;19.20;4.25;;;;;;;5.06;100.00;97815.94;5036345;28;20090;-56
2022/01/31 02:34:16;;;;;;;19.20;4.72;;;;;;;5.00;100.00;97816.09;5036620;28;20029;-55
2022/01/31 02:36:42;;;;;;;21.17;4.70;;;;;;;4.02;100.00;97824.84;5037388;28;20036;-55
2022/01/31 02:39:08;;;;;;;21.88;5.00;;;;;;;5.24;100.00;97824.16;5037688;28;20044;-54
2022/01/31 02:41:45;;;;;;;25.77;5.47;;;;;;;4.47;100.00;97800.78;5037158;28;20151;-55
2022/01/31 02:44:15;;;;;;;22.33;4.88;;;;;;;5.14;100.00;97814.00;5036462;28;20562;-54
2022/01/31 02:46:49;;;;;;;22.75;5.28;;;;;;;4.67;100.00;97823.66;5037165;28;20626;-55
2022/01/31 02:49:19;;;;;;;21.90;5.20;;;;;;;4.67;100.00;97808.16;5037976;28;20112;-54
2022/01/31 02:51:49;;;;;;;19.17;4.85;;;;;;;4.77;100.00;97783.81;5037102;28;20033;-55
2022/01/31 02:54:14;;;;;;;16.20;4.40;;;;;;;4.37;100.00;97765.69;5037598;28;20051;-55
2022/01/31 02:56:40;;;;;;;23.17;4.93;;;;;;;5.19;100.00;97760.47;5036636;28;20509;-56
2022/01/31 02:59:06;;;;;;;22.42;4.72;;;;;;;5.32;100.00;97747.25;5037017;28;20104;-54
2022/01/31 03:01:35;;;;;;;17.50;4.68;;;;;;;4.80;100.00;97747.56;5036099;28;20120;-55
2022/01/31 03:04:00;;;;;;;18.95;4.70;;;;;;;4.43;100.00;97730.28;5037269;28;20068;-56
2022/01/31 03:06:25;;;;;;;17.90;4.50;;;;;;;4.25;100.00;97703.09;5037412;28;20098;-55
2022/01/31 03:08:51;;;;;;;27.52;5.22;;;;;;;4.20;100.00;97678.25;5037384;28;20134;-55
2022/01/31 03:11:16;;;;;;;18.95;4.75;;;;;;;4.01;100.00;97672.63;5036712;28;20032;-55
2022/01/31 03:13:41;;;;;;;19.55;5.15;;;;;;;3.77;100.00;97676.53;5036646;28;20043;-54
2022/01/31 03:16:07;;;;;;;13.70;4.05;;;;;;;4.91;100.00;97687.91;5037264;28;20041;-54
2022/01/31 03:18:32;;;;;;;17.17;4.57;;;;;;;5.15;100.00;97683.03;5037386;28;20926;-54
2022/01/31 03:20:58;;;;;;;17.63;4.72;;;;;;;4.55;100.00;97664.59;5036521;28;20118;-54
2022/01/31 03:23:23;;;;;;;16.23;4.32;;;;;;;4.26;100.00;97662.63;5035359;28;20119;-55
2022/01/31 03:25:49;;;;;;;22.83;5.10;;;;;;;4.51;100.00;97669.88;5036685;28;20033;-55
2022/01/31 03:28:14;;;;;;;26.23;5.10;;;;;;;3.87;100.00;97667.72;5036102;28;20052;-55
2022/01/31 03:30:40;;;;;;;24.85;4.90;;;;;;;4.53;100.00;97670.69;5035346;28;20029;-55
2022/01/31 03:33:05;;;;;;;19.00;5.35;;;;;;;4.55;100.00;97674.06;5035937;28;20024;-55
2022/01/31 03:35:30;;;;;;;15.45;3.95;;;;;;;4.22;100.00;97677.31;5034018;28;20780;-55
2022/01/31 03:37:56;;;;;;;21.98;4.90;;;;;;;4.43;100.00;97665.72;5035611;28;20025;-54
2022/01/31 03:40:21;;;;;;;17.98;4.70;;;;;;;5.45;100.00;97673.66;5035633;28;20035;-55
2022/01/31 03:42:46;;;;;;;18.67;4.90;;;;;;;4.87;100.00;97659.56;5035339;28;20029;-55
2022/01/31 03:45:12;;;;;;;19.80;4.57;;;;;;;4.80;100.00;97645.94;5035667;28;20032;-55
2022/01/31 03:47:44;;;;;;;16.50;4.43;;;;;;;5.03;100.00;97645.38;5034838;28;20032;-55
2022/01/31 03:50:14;;;;;;;16.27;4.43;;;;;;;4.98;100.00;97636.88;5035474;28;20100;-55
2022/01/31 03:52:42;;;;;;;18.70;5.07;;;;;;;4.47;100.00;97634.63;5035097;28;20036;-55
2022/01/31 03:55:09;;;;;;;17.48;4.68;;;;;;;4.60;100.00;97621.41;5036445;28;20049;-54
2022/01/31 03:57:34;;;;;;;21.90;4.57;;;;;;;4.88;100.00;97604.41;5039157;28;20036;-55
2022/01/31 04:00:01;;;;;;;22.15;5.35;;;;;;;4.46;100.00;97601.97;5038194;28;20029;-54
2022/01/31 04:02:27;;;;;;;20.95;5.03;;;;;;;4.28;100.00;97601.47;5038237;28;20120;-54
2022/01/31 04:04:52;;;;;;;15.90;4.57;;;;;;;5.05;100.00;97585.91;5039467;28;21091;-53
2022/01/31 04:07:17;;;;;;;19.90;5.30;;;;;;;4.57;100.00;97590.47;5038557;28;20037;-54
2022/01/31 04:09:43;;;;;;;18.90;4.97;;;;;;;4.54;100.00;97595.75;5039491;28;20070;-54
2022/01/31 04:12:09;;;;;;;23.50;7.35;;;;;;;4.94;100.00;97589.59;5038008;28;20048;-53
2022/01/31 04:14:34;;;;;;;17.48;4.88;;;;;;;4.49;100.00;97592.41;5039433;28;20681;-53
2022/01/31 04:17:00;;;;;;;14.52;4.32;;;;;;;5.03;100.00;97601.44;5038956;28;20105;-55
2022/01/31 04:19:25;;;;;;;18.83;4.78;;;;;;;5.23;100.00;97611.28;5039071;28;20025;-54
2022/01/31 04:21:51;;;;;;;21.42;4.88;;;;;;;4.97;100.00;97620.53;5037774;28;20535;-54
2022/01/31 04:24:19;;;;;;;23.30;5.15;;;;;;;4.89;100.00;97612.13;5038340;28;20479;-54
2022/01/31 04:26:55;;;;;;;20.80;4.75;;;;;;;4.30;100.00;97602.31;5020345;28;20041;-56
2022/01/31 04:29:21;;;;;;;20.50;5.25;;;;;;;3.90;100.00;97587.69;5038652;28;20025;-54
2022/01/31 04:31:49;;;;;;;19.38;4.65;;;;;;;4.61;100.00;97571.47;5038038;28;20037;-56
2022/01/31 04:34:15;;;;;;;21.05;4.95;;;;;;;5.25;100.00;97562.13;5038177;28;20035;-56
2022/01/31 04:36:40;;;;;;;24.45;5.63;;;;;;;4.54;100.00;97543.22;5037474;28;20045;-54
2022/01/31 04:39:06;;;;;;;18.38;4.90;;;;;;;5.03;100.00;97547.16;5038432;28;20120;-57
2022/01/31 04:41:31;;;;;;;17.88;4.60;;;;;;;4.49;100.00;97534.75;5037534;28;20033;-54
2022/01/31 04:44:02;;;;;;;23.45;4.70;;;;;;;4.33;100.00;97516.19;5038396;28;20025;-53
2022/01/31 04:46:29;;;;;;;19.05;4.60;;;;;;;4.59;100.00;97515.53;5038421;28;20053;-54
2022/01/31 04:48:54;;;;;;;15.32;4.13;;;;;;;5.31;100.00;97505.03;5037827;28;20028;-54
2022/01/31 04:51:20;;;;;;;15.80;4.85;;;;;;;4.92;100.00;97506.09;5037709;28;20122;-55
2022/01/31 04:53:45;;;;;;;20.08;5.05;;;;;;;4.80;100.00;97509.84;5038500;28;20095;-56
2022/01/31 04:56:11;;;;;;;16.83;4.38;;;;;;;5.29;100.00;97499.06;5037992;28;20044;-55
2022/01/31 04:58:36;;;;;;;23.00;5.18;;;;;;;4.58;100.00;97494.03;5038535;28;20032;-55
2022/01/31 05:01:02;;;;;;;17.92;4.95;;;;;;;4.39;100.00;97482.47;5037933;28;20032;-54
2022/01/31 05:03:27;;;;;;;21.10;4.68;;;;;;;4.49;100.00;97467.59;5037922;28;20027;-53
2022/01/31 05:05:52;;;;;;;18.75;5.05;;;;;;;4.65;100.00;97453.41;5037616;28;20727;-54
2022/01/31 05:08:24;;;;;;;15.50;4.18;;;;;;;5.33;100.00;97441.19;5037804;28;20056;-55
2022/01/31 05:10:50;;;;;;;17.00;4.37;;;;;;;4.81;100.00;97434.00;5037516;28;20541;-55
2022/01/31 05:13:16;;;;;;;18.77;4.72;;;;;;;4.67;100.00;97423.22;5037137;28;20259;-56
2022/01/31 05:15:43;;;;;;;16.02;4.40;;;;;;;4.23;100.00;97414.88;5037629;28;20136;-55
2022/01/31 05:18:08;;;;;;;16.10;4.57;;;;;;;4.59;100.00;97407.06;5037795;28;20041;-56
2022/01/31 05:20:34;;;;;;;18.95;4.78;;;;;;;4.66;100.00;97400.84;5036625;28;20033;-54
2022/01/31 05:22:59;;;;;;;20.17;4.38;;;;;;;4.47;100.00;97397.91;5037084;28;20043;-54
2022/01/31 05:25:25;;;;;;;20.77;4.82;;;;;;;4.61;100.00;97387.19;5037313;28;20040;-55
2022/01/31 05:27:50;;;;;;;19.73;5.10;;;;;;;4.34;100.00;97357.81;5038071;28;20021;-55
2022/01/31 05:30:16;;;;;;;27.27;5.28;;;;;;;4.78;100.00;97348.84;5036872;28;20506;-55
2022/01/31 05:32:42;;;;;;;24.67;4.82;;;;;;;4.79;100.00;97355.69;5037285;28;20087;-54
2022/01/31 05:35:08;;;;;;;17.45;4.60;;;;;;;4.77;100.00;97339.38;5036897;28;20383;-56
2022/01/31 05:37:34;;;;;;;20.63;4.60;;;;;;;5.03;100.00;97330.03;5037765;28;20044;-56
2022/01/31 05:40:00;;;;;;;17.27;4.38;;;;;;;4.76;100.00;97318.75;5037389;28;20092;-55
2022/01/31 05:42:25;;;;;;;15.77;4.35;;;;;;;5.40;100.00;97311.69;5036787;28;20053;-56
2022/01/31 05:44:50;;;;;;;14.75;4.18;;;;;;;5.90;100.00;97323.03;5037769;28;20029;-53
2022/01/31 05:47:16;;;;;;;16.95;4.47;;;;;;;6.22;100.00;97319.38;5036792;28;20037;-54
2022/01/31 05:49:42;;;;;;;20.98;4.88;;;;;;;5.09;100.00;97288.53;5037353;28;20387;-55
2022/01/31 05:52:08;;;;;;;19.20;4.82;;;;;;;5.27;100.00;97288.84;5036440;28;20041;-56
2022/01/31 05:54:36;;;;;;;18.00;4.88;;;;;;;4.76;100.00;97275.72;5036669;28;20052;-54
2022/01/31 05:57:01;;;;;;;16.30;4.93;;;;;;;4.75;100.00;97263.66;5036505;28;20037;-55
2022/01/31 05:59:27;;;;;;;17.63;4.72;;;;;;;4.71;100.00;97266.41;5037218;28;20021;-54
2022/01/31 06:01:53;;;;;;;28.00;5.82;;;;;;;4.63;100.00;97251.09;5027528;28;20037;-55
2022/01/31 06:04:19;;;;;;;17.75;4.55;;;;;;;4.94;100.00;97234.69;5034958;28;20029;-54
2022/01/31 06:06:45;;;;;;;12.63;3.70;;;;;;;5.60;100.00;97233.41;5039724;28;20044;-57
2022/01/31 06:09:10;;;;;;;15.73;4.40;;;;;;;5.26;100.00;97228.53;5040071;28;20028;-53
2022/01/31 06:11:36;;;;;;;16.30;4.13;;;;;;;5.47;100.00;97220.97;5039185;28;20057;-55
2022/01/31 06:14:02;;;;;;;15.88;4.15;;;;;;;5.89;100.00;97204.88;5040389;28;20046;-54
2022/01/31 06:16:29;;;;;;;20.63;4.97;;;;;;;5.01;100.00;97192.25;5039371;28;20091;-54
2022/01/31 06:18:55;;;;;;;17.30;4.18;;;;;;;5.96;100.00;97183.94;5038862;28;20033;-56
2022/01/31 06:21:20;;;;;;;15.98;4.25;;;;;;;5.08;100.00;97170.50;5039538;28;20037;-54
2022/01/31 06:23:46;;;;;;;14.35;4.30;;;;;;;5.12;100.00;97172.09;5039838;28;20053;-54
2022/01/31 06:26:11;;;;;;;19.75;4.68;;;;;;;5.76;100.00;97176.00;5039323;28;20556;-54
2022/01/31 06:28:37;;;;;;;20.52;4.68;;;;;;;5.94;100.00;97165.00;5040399;28;20024;-54
2022/01/31 06:31:02;;;;;;;18.15;5.00;;;;;;;4.79;100.00;97161.91;5039112;28;20040;-55
2022/01/31 06:33:28;;;;;;;15.38;3.80;;;;;;;7.26;100.00;97160.84;5039763;28;20024;-53
2022/01/31 06:35:53;;;;;;;20.60;4.88;;;;;;;5.31;100.00;97162.00;5037406;28;20037;-53
2022/01/31 06:38:21;;;;;;;16.17;4.32;;;;;;;5.76;100.00;97165.66;5039464;28;20052;-55
2022/01/31 06:40:47;;;;;;;12.50;4.25;;;;;;;5.15;100.00;97159.06;5036082;28;20033;-54
2022/01/31 06:43:13;;;;;;;18.05;4.63;;;;;;;5.19;100.00;97152.06;5037077;28;20044;-54
2022/01/31 06:45:39;;;;;;;13.02;3.67;;;;;;;9.97;100.00;97159.56;5037354;28;20033;-54
2022/01/31 06:48:05;;;;;;;14.50;4.40;;;;;;;8.82;100.00;97154.88;5039780;28;20489;-53
2022/01/31 06:50:30;;;;;;;15.18;3.22;;;;;;;12.07;100.00;97155.75;5038895;28;20136;-54
2022/01/31 06:52:56;;;;;;;11.60;3.03;;;;;;;11.50;100.00;97157.31;5039586;28;20023;-53
2022/01/31 06:55:23;;;;;;;14.40;4.47;;;;;;;6.92;100.00;97157.03;5038855;28;20020;-56
2022/01/31 06:57:51;;;;;;;17.45;5.00;;;;;;;5.59;100.00;97159.31;5040151;28;22031;-55
2022/01/31 07:00:18;;;;;;;20.60;5.10;;;;;;;5.01;100.00;97156.09;5037341;28;20029;-53
2022/01/31 07:02:45;;;;;;;23.25;5.93;;;;;;;4.42;100.00;97151.88;5037954;28;20020;-54
2022/01/31 07:05:12;;;;;;;25.55;5.43;;;;;;;3.84;100.00;97144.06;5037563;28;20106;-54
2022/01/31 07:07:38;;;;;;;19.75;5.68;;;;;;;3.87;100.00;97144.00;5036993;28;20025;-53
2022/01/31 07:10:05;;;;;;;23.50;5.72;;;;;;;3.27;100.00;97149.03;5036013;28;20021;-54
2022/01/31 07:12:33;;;;;;;29.83;5.18;;;;;;;3.30;100.00;97142.09;5035719;28;20121;-52
2022/01/31 07:14:59;;;;;;;20.60;5.80;;;;;;;3.17;100.00;97144.97;5038536;28;20068;-59
2022/01/31 07:17:25;;;;;;;19.42;5.85;;;;;;;2.89;100.00;97143.09;5039057;28;20063;-55
2022/01/31 07:19:50;;;;;;;17.55;5.82;;;;;;;2.94;100.00;97136.97;5038961;28;20695;-54
2022/01/31 07:22:16;;;;;;;24.75;6.25;;;;;;;3.17;100.00;97124.38;5037596;28;20670;-53
2022/01/31 07:24:46;;;;;;;29.42;6.40;;;;;;;3.00;100.00;97129.09;5039827;28;20086;-55
2022/01/31 07:27:12;;;;;;;27.52;6.55;;;;;;;2.98;100.00;97136.88;5039206;28;20506;-54
2022/01/31 07:29:38;;;;;;;27.42;6.30;;;;;;;3.13;100.00;97119.34;5039435;28;20475;-55
2022/01/31 07:32:07;;;;;;;22.48;6.03;;;;;;;3.78;100.00;97114.13;5041980;28;20905;-54
2022/01/31 07:34:32;;;;;;;20.98;6.65;;;;;;;2.57;100.00;97104.38;5042775;28;20498;-55
2022/01/31 07:36:58;;;;;;;22.77;7.13;;;;;;;2.95;100.00;97110.34;5042393;28;20041;-55
2022/01/31 07:39:23;;;;;;;21.80;6.35;;;;;;;3.20;100.00;97105.41;5042937;28;20071;-54
2022/01/31 07:41:48;;;;;;;26.50;7.15;;;;;;;3.14;100.00;97095.25;5042443;28;20120;-55
2022/01/31 07:44:14;;;;;;;28.10;6.88;;;;;;;3.49;100.00;97096.88;5042889;28;20423;-54
2022/01/31 07:46:40;;;;;;;23.33;6.40;;;;;;;3.38;100.00;97088.59;5042605;28;20065;-54
2022/01/31 07:49:07;;;;;;;27.35;6.30;;;;;;;3.62;100.00;97097.41;5042975;28;20040;-53
2022/01/31 07:51:34;;;;;;;22.02;6.85;;;;;;;3.11;100.00;97096.19;5041834;28;20041;-54
2022/01/31 07:54:00;;;;;;;20.25;7.30;;;;;;;3.32;100.00;97089.63;5042703;28;20483;-54
2022/01/31 07:56:25;;;;;;;21.42;6.72;;;;;;;2.90;100.00;97082.09;5042069;28;20048;-52
2022/01/31 07:58:51;;;;;;;28.67;6.35;;;;;;;4.10;100.00;97098.63;5042775;28;20033;-53
2022/01/31 08:01:16;;;;;;;21.77;6.78;;;;;;;3.74;100.00;97083.34;5041495;28;20040;-53
2022/01/31 08:03:42;;;;;;;19.52;6.25;;;;;;;3.19;100.00;97083.94;5042368;28;20510;-54
2022/01/31 08:06:07;;;;;;;20.13;6.68;;;;;;;3.56;100.00;97077.78;5040745;28;20036;-53
2022/01/31 08:08:34;;;;;;;23.08;6.55;;;;;;;3.39;100.00;97082.56;5043092;28;20032;-54
2022/01/31 08:11:01;;;;;;;21.55;6.47;;;;;;;3.34;100.00;97085.25;5041795;28;20064;-53
2022/01/31 08:13:26;;;;;;;17.92;5.78;;;;;;;4.02;100.00;97079.03;5042909;28;20113;-53
2022/01/31 08:18:28;;;;;;;18.17;6.28;;;;;;;3.54;100.00;97074.41;5042498;28;20056;-55
2022/01/31 08:20:54;;;;;;;21.83;5.93;;;;;;;3.25;100.00;97070.91;5041518;28;20079;-53
2022/01/31 08:23:19;;;;;;;23.50;5.97;;;;;;;3.65;100.00;97077.53;5041995;28;20040;-52
2022/01/31 08:25:49;;;;;;;18.23;5.95;;;;;;;3.09;100.00;97064.47;5041638;28;20053;-54
2022/01/31 08:28:16;;;;;;;20.80;6.32;;;;;;;3.85;100.00;97069.22;5040913;28;20028;-54
2022/01/31 08:30:55;;;;;;;20.45;6.00;;;;;;;4.52;100.00;97064.63;5041644;28;20560;-54
2022/01/31 08:33:34;;;;;;;15.48;5.60;;;;;;;3.79;100.00;97060.84;5041632;28;20593;-53
2022/01/31 08:36:01;;;;;;;17.92;6.03;;;;;;;3.83;100.00;97067.59;5041615;28;20048;-55
2022/01/31 08:38:27;;;;;;;13.93;5.10;;;;;;;4.67;100.00;97077.09;5041922;28;20032;-53
2022/01/31 08:40:53;;;;;;;15.52;5.13;;;;;;;5.06;100.00;97062.91;5040694;28;20048;-53
2022/01/31 08:43:19;;;;;;;16.50;5.45;;;;;;;4.03;100.00;97046.38;5041214;28;20417;-53
2022/01/31 08:45:45;;;;;;;15.82;5.85;;;;;;;3.99;100.00;97058.50;5041639;28;20044;-52
2022/01/31 08:48:11;;;;;;;16.05;5.72;;;;;;;3.69;100.00;97052.50;5041854;28;20021;-53
2022/01/31 08:50:37;;;;;;;19.00;5.18;;;;;;;3.98;100.00;97064.56;5040993;28;20040;-53
2022/01/31 08:53:02;;;;;;;17.55;5.63;;;;;;;4.72;100.00;97062.25;5040348;28;20490;-53
2022/01/31 08:55:28;;;;;;;22.15;5.55;;;;;;;5.25;100.00;97060.50;5040936;28;20044;-55
2022/01/31 08:57:56;;;;;;;19.50;4.40;;;;;;;7.23;100.00;97060.69;5041510;28;20025;-52
2022/01/31 09:00:32;;;;;;;22.25;6.80;;;;;;;4.77;100.00;97060.38;5041008;28;20041;-54
2022/01/31 09:03:16;;;;;;;16.80;5.72;;;;;;;6.05;100.00;97060.25;5041059;28;20033;-53
2022/01/31 09:05:42;;;;;;;20.60;6.63;;;;;;;8.02;100.00;97033.84;5040849;28;20044;-53
2022/01/31 09:08:07;;;;;;;15.15;5.15;;;;;;;6.78;100.00;97017.63;5040500;28;20521;-54
2022/01/31 09:10:34;;;;;;;17.45;4.68;;;;;;;8.68;100.00;97028.16;5040540;28;20373;-53
2022/01/31 09:13:00;;;;;;;17.17;4.53;;;;;;;8.60;100.00;97041.53;5040020;28;20048;-55
2022/01/31 09:15:25;;;;;;;19.63;5.05;;;;;;;7.52;100.00;97036.06;5039312;28;20060;-54
2022/01/31 09:17:51;;;;;;;18.65;5.28;;;;;;;9.35;100.00;97029.13;5041180;28;20029;-53
2022/01/31 09:20:17;;;;;;;16.75;4.95;;;;;;;7.56;100.00;97018.63;5039042;28;20611;-54
2022/01/31 09:22:43;;;;;;;16.30;4.75;;;;;;;10.18;100.00;97032.53;5040675;28;20032;-54
2022/01/31 09:25:10;;;;;;;16.13;4.80;;;;;;;7.93;100.00;97009.16;5041171;28;20032;-53
2022/01/31 09:27:36;;;;;;;14.48;4.65;;;;;;;8.58;100.00;97016.50;5056271;28;20013;-53
2022/01/31 09:30:05;;;;;;;14.40;4.63;;;;;;;8.41;100.00;97033.72;5041042;28;20072;-53
2022/01/31 09:32:31;;;;;;;12.27;4.53;;;;;;;8.74;100.00;97029.63;5039696;28;20025;-54
2022/01/31 09:34:56;;;;;;;17.33;4.50;;;;;;;8.89;100.00;97023.66;5040636;28;20087;-54
2022/01/31 09:37:22;;;;;;;10.02;4.18;;;;;;;7.35;100.00;97025.56;5040367;28;20075;-53
2022/01/31 09:39:49;;;;;;;9.25;3.85;;;;;;;7.53;100.00;97009.22;5041188;28;20104;-55
2022/01/31 09:42:23;;;;;;;9.63;3.90;;;;;;;7.90;100.00;97017.06;5039827;28;20064;-55
2022/01/31 09:45:11;;;;;;;12.32;4.57;;;;;;;7.03;100.00;97020.03;5041029;28;20028;-55
2022/01/31 09:50:21;;;;;;;15.02;4.45;;;;;;;7.98;100.00;97012.38;5040161;28;20031;-53
2022/01/31 09:52:46;;;;;;;13.27;4.10;;;;;;;8.58;100.00;97012.16;5040350;28;20025;-53
2022/01/31 09:55:13;;;;;;;10.27;3.72;;;;;;;7.38;100.00;97016.84;5040033;28;20504;-53
2022/01/31 09:57:38;;;;;;;9.00;3.58;;;;;;;6.81;100.00;97008.88;5038925;28;20083;-55
2022/01/31 10:00:06;;;;;;;11.60;3.72;;;;;;;6.97;100.00;97020.31;5040663;28;20454;-55
2022/01/31 10:02:32;;;;;;;11.15;3.90;;;;;;;7.35;100.00;97017.78;5039697;28;20053;-53
2022/01/31 10:04:57;;;;;;;10.73;3.78;;;;;;;6.44;100.00;97010.41;5040526;28;20036;-53
2022/01/31 10:07:22;;;;;;;9.63;3.50;;;;;;;6.67;100.00;97009.44;5039673;28;20044;-55
2022/01/31 10:09:49;;;;;;;10.82;3.92;;;;;;;7.07;100.00;97018.97;5040431;28;20102;-54
2022/01/31 10:16:24;;;;;;;10.82;4.18;;;;;;;6.88;100.00;97012.91;5038953;28;21188;-53
2022/01/31 10:18:00;;;;;;;12.55;4.07;;;;;;;7.58;100.00;97002.97;5040391;28;20103;-54
2022/01/31 10:20:29;;;;;;;10.75;4.10;;;;;;;8.20;100.00;97014.00;5039149;28;20041;-53
2022/01/31 10:23:05;;;;;;;13.38;4.18;;;;;;;7.56;100.00;97013.44;5039375;28;20026;-59
2022/01/31 10:25:32;;;;;;;11.50;3.58;;;;;;;8.28;100.00;97012.69;5039497;28;20041;-53
2022/01/31 10:27:57;;;;;;;11.57;4.00;;;;;;;7.48;100.00;96992.16;5039969;28;20140;-55
2022/01/31 10:30:26;;;;;;;17.13;4.65;;;;;;;8.16;100.00;96995.09;5039353;28;20111;-54
2022/01/31 10:32:54;;;;;;;11.15;4.13;;;;;;;6.93;100.00;96990.25;5039786;28;20056;-53
2022/01/31 10:35:23;;;;;;;9.48;3.28;;;;;;;7.31;100.00;96987.72;5039173;28;20024;-54
2022/01/31 10:37:54;;;;;;;12.75;4.30;;;;;;;7.35;100.00;96976.28;5039786;28;20474;-53
2022/01/31 10:56:51;;;;;;;9.50;3.30;;;;;;;8.72;100.00;96961.25;5038795;28;20037;-53
2022/01/31 10:59:36;;;;;;;9.77;3.30;;;;;;;8.74;100.00;96962.03;5039902;28;20017;-54
2022/01/31 11:02:04;;;;;;;10.48;3.60;;;;;;;9.01;100.00;96959.78;5037981;28;20128;-53
2022/01/31 11:04:33;;;;;;;9.68;3.55;;;;;;;7.84;100.00;96955.91;5039971;28;20032;-54
2022/01/31 11:07:02;;;;;;;9.43;3.80;;;;;;;10.01;100.00;96957.91;5043058;28;20079;-53
2022/01/31 11:09:30;;;;;;;10.57;3.58;;;;;;;7.95;100.00;96946.78;5043805;28;20032;-55
2022/01/31 11:11:55;;;;;;;7.65;3.35;;;;;;;8.53;100.00;96946.59;5042281;28;20211;-53
2022/01/31 11:14:21;;;;;;;10.57;3.55;;;;;;;9.60;100.00;96945.38;5043340;28;20021;-55
2022/01/31 11:16:49;;;;;;;8.82;3.45;;;;;;;8.49;100.00;96950.22;5042549;28;20514;-55
2022/01/31 11:19:18;;;;;;;10.20;3.63;;;;;;;9.30;100.00;96945.28;5043550;28;20040;-54
2022/01/31 11:21:46;;;;;;;10.45;3.75;;;;;;;7.83;100.00;96943.84;5042596;28;20045;-54
2022/01/31 11:24:20;;;;;;;8.70;3.58;;;;;;;7.83;100.00;96941.25;5042703;28;20587;-53
2022/01/31 11:26:51;;;;;;;10.85;3.78;;;;;;;8.25;100.00;96941.84;5042809;28;20037;-54
2022/01/31 11:29:18;;;;;;;8.82;3.38;;;;;;;8.98;100.00;96944.34;5043087;28;20103;-58
2022/01/31 11:31:45;;;;;;;8.32;3.22;;;;;;;7.37;100.00;96938.19;5042193;28;20495;-55
2022/01/31 11:34:10;;;;;;;9.18;3.15;;;;;;;9.78;100.00;96929.69;5043172;28;20029;-53
2022/01/31 11:36:38;;;;;;;12.77;3.60;;;;;;;7.17;100.00;96931.28;5042216;28;20094;-56
2022/01/31 11:39:06;;;;;;;9.77;3.25;;;;;;;9.25;100.00;96924.69;5043314;28;20122;-55
2022/01/31 11:41:33;;;;;;;9.05;3.20;;;;;;;7.68;100.00;96916.84;5042428;28;20045;-53
2022/01/31 11:44:06;;;;;;;9.23;3.03;;;;;;;9.33;100.00;96906.06;5043417;28;20023;-55
2022/01/31 11:46:33;;;;;;;8.88;3.05;;;;;;;7.21;100.00;96911.25;5042478;28;20041;-53
2022/01/31 11:49:08;;;;;;;12.15;3.30;;;;;;;8.00;100.00;96908.44;5042980;28;20530;-56
2022/01/31 11:51:35;;;;;;;9.25;3.50;;;;;;;7.02;100.00;96899.09;5042000;28;20041;-55
2022/01/31 11:54:07;;;;;;;9.15;3.15;;;;;;;8.09;100.00;96893.25;5042737;28;20566;-53